sensor_id;sensor_type;location;lat;lon;timestamp;pressure;altitude;pressure_sealevel;temperature;humidity
40285;BME280;25997;50.214;19.354;2023-04-29T00:00:15;97579.19;;;9.20;33.87
40285;BME280;25997;50.214;19.354;2023-04-29T00:03:17;97580.28;;;9.28;33.97
40285;BME280;25997;50.214;19.354;2023-04-29T00:06:20;97582.94;;;9.31;34.05
40285;BME280;25997;50.214;19.354;2023-04-29T00:09:24;97577.81;;;9.36;34.01
40285;BME280;25997;50.214;19.354;2023-04-29T00:12:27;97577.88;;;9.37;34.13
40285;BME280;25997;50.214;19.354;2023-04-29T00:15:31;97574.53;;;9.44;34.16
40285;BME280;25997;50.214;19.354;2023-04-29T00:18:34;97580.84;;;9.52;34.23
40285;BME280;25997;50.214;19.354;2023-04-29T00:21:37;97581.44;;;9.41;34.30
40285;BME280;25997;50.214;19.354;2023-04-29T00:24:41;97589.16;;;9.35;34.64
40285;BME280;25997;50.214;19.354;2023-04-29T00:27:43;97587.31;;;9.31;34.76
40285;BME280;25997;50.214;19.354;2023-04-29T00:30:46;97574.84;;;9.20;35.20
40285;BME280;25997;50.214;19.354;2023-04-29T00:33:48;97572.28;;;9.22;35.20
40285;BME280;25997;50.214;19.354;2023-04-29T00:36:51;97576.84;;;9.31;35.16
40285;BME280;25997;50.214;19.354;2023-04-29T00:39:55;97571.94;;;9.44;35.03
40285;BME280;25997;50.214;19.354;2023-04-29T00:42:57;97570.38;;;9.54;35.06
40285;BME280;25997;50.214;19.354;2023-04-29T00:46:00;97569.53;;;9.55;34.91
40285;BME280;25997;50.214;19.354;2023-04-29T00:49:02;97567.38;;;9.37;35.47
40285;BME280;25997;50.214;19.354;2023-04-29T00:52:05;97562.72;;;9.24;35.68
40285;BME280;25997;50.214;19.354;2023-04-29T00:55:10;97563.47;;;9.20;36.28
40285;BME280;25997;50.214;19.354;2023-04-29T00:58:14;97559.94;;;9.18;36.27
40285;BME280;25997;50.214;19.354;2023-04-29T01:01:18;97559.38;;;9.31;35.88
40285;BME280;25997;50.214;19.354;2023-04-29T01:04:21;97558.88;;;9.47;35.46
40285;BME280;25997;50.214;19.354;2023-04-29T01:07:30;97560.91;;;9.60;35.67
40285;BME280;25997;50.214;19.354;2023-04-29T01:10:42;97561.09;;;9.69;35.52
40285;BME280;25997;50.214;19.354;2023-04-29T01:13:49;97556.88;;;9.74;35.28
40285;BME280;25997;50.214;19.354;2023-04-29T01:16:59;97562.22;;;9.80;35.19
40285;BME280;25997;50.214;19.354;2023-04-29T01:20:08;97557.06;;;9.83;35.00
40285;BME280;25997;50.214;19.354;2023-04-29T01:23:11;97565.94;;;9.90;35.00
40285;BME280;25997;50.214;19.354;2023-04-29T01:26:16;97558.97;;;9.90;35.25
40285;BME280;25997;50.214;19.354;2023-04-29T01:29:39;97555.63;;;9.97;35.49
40285;BME280;25997;50.214;19.354;2023-04-29T01:32:55;97561.91;;;10.04;35.50
40285;BME280;25997;50.214;19.354;2023-04-29T01:36:08;97557.69;;;10.12;35.42
40285;BME280;25997;50.214;19.354;2023-04-29T01:39:20;97564.63;;;10.10;35.35
40285;BME280;25997;50.214;19.354;2023-04-29T01:42:44;97562.59;;;9.98;35.88
40285;BME280;25997;50.214;19.354;2023-04-29T01:45:52;97559.69;;;9.85;35.85
40285;BME280;25997;50.214;19.354;2023-04-29T01:48:56;97557.06;;;9.85;35.87
40285;BME280;25997;50.214;19.354;2023-04-29T01:51:59;97558.09;;;9.91;35.73
40285;BME280;25997;50.214;19.354;2023-04-29T01:55:02;97553.81;;;9.96;35.82
40285;BME280;25997;50.214;19.354;2023-04-29T01:58:16;97546.25;;;10.09;35.83
40285;BME280;25997;50.214;19.354;2023-04-29T02:01:24;97545.06;;;9.94;36.21
40285;BME280;25997;50.214;19.354;2023-04-29T02:04:28;97543.84;;;9.79;36.16
40285;BME280;25997;50.214;19.354;2023-04-29T02:07:33;97551.41;;;9.65;36.29
40285;BME280;25997;50.214;19.354;2023-04-29T02:10:36;97550.91;;;9.43;36.59
40285;BME280;25997;50.214;19.354;2023-04-29T02:13:52;97543.75;;;9.36;36.78
40285;BME280;25997;50.214;19.354;2023-04-29T02:16:56;97540.31;;;9.38;36.74
40285;BME280;25997;50.214;19.354;2023-04-29T02:19:59;97535.25;;;9.44;36.97
40285;BME280;25997;50.214;19.354;2023-04-29T02:23:03;97538.13;;;9.58;36.81
40285;BME280;25997;50.214;19.354;2023-04-29T02:26:05;97533.16;;;9.70;36.65
40285;BME280;25997;50.214;19.354;2023-04-29T02:29:10;97531.63;;;9.79;36.67
40285;BME280;25997;50.214;19.354;2023-04-29T02:32:13;97526.50;;;9.85;36.99
40285;BME280;25997;50.214;19.354;2023-04-29T02:35:16;97530.16;;;9.93;36.70
40285;BME280;25997;50.214;19.354;2023-04-29T02:38:18;97519.75;;;9.96;36.73
40285;BME280;25997;50.214;19.354;2023-04-29T02:41:21;97520.66;;;9.98;36.43
40285;BME280;25997;50.214;19.354;2023-04-29T02:44:25;97526.13;;;10.09;36.66
40285;BME280;25997;50.214;19.354;2023-04-29T02:47:27;97519.25;;;10.14;36.52
40285;BME280;25997;50.214;19.354;2023-04-29T02:50:30;97529.97;;;10.26;36.38
40285;BME280;25997;50.214;19.354;2023-04-29T02:53:33;97522.28;;;10.35;36.34
40285;BME280;25997;50.214;19.354;2023-04-29T02:56:35;97521.47;;;10.39;36.29
40285;BME280;25997;50.214;19.354;2023-04-29T02:59:39;97524.94;;;10.38;36.39
40285;BME280;25997;50.214;19.354;2023-04-29T03:02:42;97524.13;;;10.42;36.14
40285;BME280;25997;50.214;19.354;2023-04-29T03:05:44;97518.13;;;10.48;36.13
40285;BME280;25997;50.214;19.354;2023-04-29T03:08:47;97513.81;;;10.51;36.25
40285;BME280;25997;50.214;19.354;2023-04-29T03:11:50;97512.16;;;10.58;36.15
40285;BME280;25997;50.214;19.354;2023-04-29T03:14:55;97501.75;;;10.62;36.24
40285;BME280;25997;50.214;19.354;2023-04-29T03:17:57;97510.56;;;10.66;36.00
40285;BME280;25997;50.214;19.354;2023-04-29T03:21:02;97503.53;;;10.65;36.27
40285;BME280;25997;50.214;19.354;2023-04-29T03:24:05;97509.69;;;10.65;36.32
40285;BME280;25997;50.214;19.354;2023-04-29T03:27:09;97508.88;;;10.69;36.17
40285;BME280;25997;50.214;19.354;2023-04-29T03:30:13;97502.72;;;10.67;36.34
40285;BME280;25997;50.214;19.354;2023-04-29T03:33:22;97513.06;;;10.60;36.61
40285;BME280;25997;50.214;19.354;2023-04-29T03:36:25;97506.00;;;10.54;36.68
40285;BME280;25997;50.214;19.354;2023-04-29T03:39:40;97505.97;;;10.53;36.60
40285;BME280;25997;50.214;19.354;2023-04-29T03:42:43;97506.00;;;10.54;36.71
40285;BME280;25997;50.214;19.354;2023-04-29T03:45:47;97512.13;;;10.55;37.01
40285;BME280;25997;50.214;19.354;2023-04-29T03:48:53;97510.28;;;10.49;36.78
40285;BME280;25997;50.214;19.354;2023-04-29T03:51:57;97506.63;;;10.41;37.11
40285;BME280;25997;50.214;19.354;2023-04-29T03:54:59;97503.84;;;10.32;37.32
40285;BME280;25997;50.214;19.354;2023-04-29T03:58:02;97510.72;;;10.24;37.54
40285;BME280;25997;50.214;19.354;2023-04-29T04:01:07;97516.69;;;10.17;37.90
40285;BME280;25997;50.214;19.354;2023-04-29T04:04:17;97512.19;;;10.12;37.90
40285;BME280;25997;50.214;19.354;2023-04-29T04:07:22;97515.69;;;10.11;37.82
40285;BME280;25997;50.214;19.354;2023-04-29T04:10:56;97506.06;;;10.11;38.05
40285;BME280;25997;50.214;19.354;2023-04-29T04:14:26;97508.78;;;10.16;38.07
40285;BME280;25997;50.214;19.354;2023-04-29T04:17:30;97508.00;;;10.21;38.24
40285;BME280;25997;50.214;19.354;2023-04-29T04:20:35;97513.41;;;10.29;38.31
40285;BME280;25997;50.214;19.354;2023-04-29T04:23:38;97519.50;;;10.28;38.40
40285;BME280;25997;50.214;19.354;2023-04-29T04:26:43;97515.16;;;10.30;38.34
40285;BME280;25997;50.214;19.354;2023-04-29T04:29:52;97510.91;;;10.36;38.38
40285;BME280;25997;50.214;19.354;2023-04-29T04:33:02;97508.44;;;10.45;38.54
40285;BME280;25997;50.214;19.354;2023-04-29T04:36:05;97501.47;;;10.46;38.81
40285;BME280;25997;50.214;19.354;2023-04-29T04:39:08;97505.72;;;10.39;39.07
40285;BME280;25997;50.214;19.354;2023-04-29T04:42:10;97491.63;;;10.34;39.17
40285;BME280;25997;50.214;19.354;2023-04-29T04:45:14;97497.72;;;10.33;39.64
40285;BME280;25997;50.214;19.354;2023-04-29T04:48:24;97496.88;;;10.33;39.72
40285;BME280;25997;50.214;19.354;2023-04-29T04:51:28;97502.06;;;10.31;39.90
40285;BME280;25997;50.214;19.354;2023-04-29T04:54:30;97505.66;;;10.36;40.15
40285;BME280;25997;50.214;19.354;2023-04-29T04:57:46;97499.53;;;10.36;40.47
40285;BME280;25997;50.214;19.354;2023-04-29T05:00:48;97504.84;;;10.39;40.91
40285;BME280;25997;50.214;19.354;2023-04-29T05:03:54;97505.66;;;10.36;40.96
40285;BME280;25997;50.214;19.354;2023-04-29T05:06:57;97502.94;;;10.30;41.04
40285;BME280;25997;50.214;19.354;2023-04-29T05:10:06;97499.44;;;10.30;41.44
40285;BME280;25997;50.214;19.354;2023-04-29T05:13:15;97506.38;;;10.26;44.99
40285;BME280;25997;50.214;19.354;2023-04-29T05:16:17;97506.16;;;10.16;41.44
40285;BME280;25997;50.214;19.354;2023-04-29T05:19:23;97496.53;;;10.15;41.79
40285;BME280;25997;50.214;19.354;2023-04-29T05:22:26;97501.84;;;10.18;42.19
40285;BME280;25997;50.214;19.354;2023-04-29T05:25:29;97503.69;;;10.23;42.24
40285;BME280;25997;50.214;19.354;2023-04-29T05:28:32;97502.88;;;10.27;42.47
40285;BME280;25997;50.214;19.354;2023-04-29T05:31:34;97502.91;;;10.29;42.46
40285;BME280;25997;50.214;19.354;2023-04-29T05:34:40;97509.91;;;10.28;43.02
40285;BME280;25997;50.214;19.354;2023-04-29T05:37:44;97504.75;;;10.34;42.64
40285;BME280;25997;50.214;19.354;2023-04-29T05:41:11;97506.63;;;10.40;42.80
40285;BME280;25997;50.214;19.354;2023-04-29T05:44:32;97517.06;;;10.38;42.89
40285;BME280;25997;50.214;19.354;2023-04-29T05:47:34;97505.59;;;10.33;43.14
40285;BME280;25997;50.214;19.354;2023-04-29T05:50:39;97508.28;;;10.35;43.17
40285;BME280;25997;50.214;19.354;2023-04-29T05:53:41;97513.53;;;10.36;43.45
40285;BME280;25997;50.214;19.354;2023-04-29T05:56:44;97515.31;;;10.37;43.60
40285;BME280;25997;50.214;19.354;2023-04-29T05:59:46;97512.69;;;10.37;43.83
40285;BME280;25997;50.214;19.354;2023-04-29T06:02:49;97533.56;;;10.31;44.00
40285;BME280;25997;50.214;19.354;2023-04-29T06:05:53;97523.78;;;10.23;44.10
40285;BME280;25997;50.214;19.354;2023-04-29T06:09:14;97522.94;;;10.24;44.25
40285;BME280;25997;50.214;19.354;2023-04-29T06:12:18;97513.34;;;10.26;44.44
40285;BME280;25997;50.214;19.354;2023-04-29T06:15:22;97511.69;;;10.31;44.60
40285;BME280;25997;50.214;19.354;2023-04-29T06:18:26;97515.22;;;10.33;44.40
40285;BME280;25997;50.214;19.354;2023-04-29T06:21:30;97509.25;;;10.41;44.45
40285;BME280;25997;50.214;19.354;2023-04-29T06:24:34;97508.53;;;10.50;44.39
40285;BME280;25997;50.214;19.354;2023-04-29T06:27:37;97508.56;;;10.51;44.59
40285;BME280;25997;50.214;19.354;2023-04-29T06:30:40;97510.41;;;10.55;44.70
40285;BME280;25997;50.214;19.354;2023-04-29T06:33:43;97514.84;;;10.59;44.95
40285;BME280;25997;50.214;19.354;2023-04-29T06:36:48;97510.56;;;10.66;45.03
40285;BME280;25997;50.214;19.354;2023-04-29T06:40:07;97517.56;;;10.67;44.78
40285;BME280;25997;50.214;19.354;2023-04-29T06:43:17;97516.81;;;10.71;45.12
40285;BME280;25997;50.214;19.354;2023-04-29T06:46:45;97518.78;;;10.87;44.72
40285;BME280;25997;50.214;19.354;2023-04-29T06:50:14;97515.41;;;10.94;44.72
40285;BME280;25997;50.214;19.354;2023-04-29T06:53:20;97528.59;;;10.97;44.64
40285;BME280;25997;50.214;19.354;2023-04-29T06:56:23;97532.00;;;10.90;45.27
40285;BME280;25997;50.214;19.354;2023-04-29T06:59:25;97525.00;;;10.92;45.22
40285;BME280;25997;50.214;19.354;2023-04-29T07:02:27;97517.38;;;11.07;45.29
40285;BME280;25997;50.214;19.354;2023-04-29T07:05:30;97515.88;;;11.21;45.22
40285;BME280;25997;50.214;19.354;2023-04-29T07:08:34;97516.78;;;11.23;45.48
40285;BME280;25997;50.214;19.354;2023-04-29T07:11:36;97522.13;;;11.29;45.33
40285;BME280;25997;50.214;19.354;2023-04-29T07:14:39;97515.31;;;11.42;45.06
40285;BME280;25997;50.214;19.354;2023-04-29T07:17:42;97522.38;;;11.46;45.24
40285;BME280;25997;50.214;19.354;2023-04-29T07:20:44;97520.63;;;11.47;45.04
40285;BME280;25997;50.214;19.354;2023-04-29T07:23:49;97524.13;;;11.45;45.09
40285;BME280;25997;50.214;19.354;2023-04-29T07:26:52;97523.16;;;11.39;45.29
40285;BME280;25997;50.214;19.354;2023-04-29T07:29:54;97524.88;;;11.37;45.53
40285;BME280;25997;50.214;19.354;2023-04-29T07:32:57;97531.25;;;11.54;45.20
40285;BME280;25997;50.214;19.354;2023-04-29T07:36:00;97525.22;;;11.63;45.11
40285;BME280;25997;50.214;19.354;2023-04-29T07:39:05;97529.72;;;11.71;44.99
40285;BME280;25997;50.214;19.354;2023-04-29T07:42:07;97529.59;;;11.61;44.96
40285;BME280;25997;50.214;19.354;2023-04-29T07:45:10;97532.84;;;11.43;45.32
40285;BME280;25997;50.214;19.354;2023-04-29T07:48:14;97528.28;;;11.31;45.43
40285;BME280;25997;50.214;19.354;2023-04-29T07:51:16;97545.69;;;11.23;45.94
40285;BME280;25997;50.214;19.354;2023-04-29T07:54:20;97536.78;;;11.14;46.37
40285;BME280;25997;50.214;19.354;2023-04-29T07:57:23;97533.41;;;11.22;45.98
40285;BME280;25997;50.214;19.354;2023-04-29T08:00:26;97539.75;;;11.36;46.05
40285;BME280;25997;50.214;19.354;2023-04-29T08:03:28;97542.66;;;11.55;46.09
40285;BME280;25997;50.214;19.354;2023-04-29T08:06:31;97542.88;;;11.71;46.21
40285;BME280;25997;50.214;19.354;2023-04-29T08:09:35;97533.41;;;11.84;46.12
40285;BME280;25997;50.214;19.354;2023-04-29T08:12:38;97551.13;;;11.98;46.21
40285;BME280;25997;50.214;19.354;2023-04-29T08:15:41;97552.13;;;12.09;45.98
40285;BME280;25997;50.214;19.354;2023-04-29T08:18:44;97551.16;;;12.01;46.51
40285;BME280;25997;50.214;19.354;2023-04-29T08:21:46;97548.56;;;12.04;46.36
40285;BME280;25997;50.214;19.354;2023-04-29T08:24:50;97545.22;;;12.13;46.64
40285;BME280;25997;50.214;19.354;2023-04-29T08:27:53;97548.00;;;12.28;46.63
40285;BME280;25997;50.214;19.354;2023-04-29T08:30:56;97541.16;;;12.44;46.64
40285;BME280;25997;50.214;19.354;2023-04-29T08:33:58;97544.78;;;12.55;46.52
40285;BME280;25997;50.214;19.354;2023-04-29T08:37:01;97545.78;;;12.67;46.44
40285;BME280;25997;50.214;19.354;2023-04-29T08:40:07;97542.44;;;12.83;46.64
40285;BME280;25997;50.214;19.354;2023-04-29T08:43:11;97539.91;;;13.00;46.32
40285;BME280;25997;50.214;19.354;2023-04-29T08:46:14;97544.50;;;13.16;46.31
40285;BME280;25997;50.214;19.354;2023-04-29T08:49:18;97546.31;;;13.25;46.17
40285;BME280;25997;50.214;19.354;2023-04-29T08:52:20;97532.31;;;13.30;46.20
40285;BME280;25997;50.214;19.354;2023-04-29T08:55:25;97533.19;;;13.34;46.09
40285;BME280;25997;50.214;19.354;2023-04-29T08:58:28;97535.03;;;13.44;46.41
40285;BME280;25997;50.214;19.354;2023-04-29T09:01:31;97529.91;;;13.68;46.52
40285;BME280;25997;50.214;19.354;2023-04-29T09:04:43;97527.44;;;13.98;46.31
40285;BME280;25997;50.214;19.354;2023-04-29T09:07:50;97529.34;;;14.43;46.08
40285;BME280;25997;50.214;19.354;2023-04-29T09:10:54;97526.75;;;14.76;45.52
40285;BME280;25997;50.214;19.354;2023-04-29T09:13:58;97532.09;;;15.23;44.95
40285;BME280;25997;50.214;19.354;2023-04-29T09:17:02;97532.94;;;15.67;44.97
40285;BME280;25997;50.214;19.354;2023-04-29T09:20:25;97523.94;;;16.14;43.88
40285;BME280;25997;50.214;19.354;2023-04-29T09:23:36;97530.06;;;16.29;43.38
40285;BME280;25997;50.214;19.354;2023-04-29T09:26:42;97528.88;;;16.85;43.37
40285;BME280;25997;50.214;19.354;2023-04-29T09:29:59;97530.41;;;17.22;42.19
40285;BME280;25997;50.214;19.354;2023-04-29T09:33:07;97527.72;;;17.27;42.35
40285;BME280;25997;50.214;19.354;2023-04-29T09:36:10;97526.81;;;17.28;41.78
40285;BME280;25997;50.214;19.354;2023-04-29T09:39:13;97525.03;;;17.28;41.62
40285;BME280;25997;50.214;19.354;2023-04-29T09:42:17;97529.38;;;17.34;41.60
40285;BME280;25997;50.214;19.354;2023-04-29T09:45:32;97523.19;;;17.38;40.92
40285;BME280;25997;50.214;19.354;2023-04-29T09:48:34;97522.41;;;17.27;40.68
40285;BME280;25997;50.214;19.354;2023-04-29T09:51:51;97516.78;;;17.57;40.31
40285;BME280;25997;50.214;19.354;2023-04-29T09:55:04;97511.22;;;17.81;39.81
40285;BME280;25997;50.214;19.354;2023-04-29T09:58:24;97513.25;;;18.34;38.95
40285;BME280;25997;50.214;19.354;2023-04-29T10:01:28;97517.78;;;18.26;39.51
40285;BME280;25997;50.214;19.354;2023-04-29T10:04:34;97512.19;;;18.48;38.83
40285;BME280;25997;50.214;19.354;2023-04-29T10:07:38;97510.25;;;18.59;39.10
40285;BME280;25997;50.214;19.354;2023-04-29T10:10:41;97508.91;;;18.89;38.16
40285;BME280;25997;50.214;19.354;2023-04-29T10:13:47;97503.19;;;19.13;38.10
40285;BME280;25997;50.214;19.354;2023-04-29T10:16:58;97503.91;;;19.24;36.88
40285;BME280;25997;50.214;19.354;2023-04-29T10:20:04;97510.91;;;18.77;37.74
40285;BME280;25997;50.214;19.354;2023-04-29T10:23:10;97507.09;;;18.93;37.19
40285;BME280;25997;50.214;19.354;2023-04-29T10:26:15;97507.91;;;18.96;37.55
40285;BME280;25997;50.214;19.354;2023-04-29T10:29:21;97505.28;;;18.95;37.69
40285;BME280;25997;50.214;19.354;2023-04-29T10:32:25;97511.34;;;17.69;37.77
40285;BME280;25997;50.214;19.354;2023-04-29T10:35:30;97512.72;;;17.19;38.48
40285;BME280;25997;50.214;19.354;2023-04-29T10:38:35;97513.78;;;16.97;38.74
40285;BME280;25997;50.214;19.354;2023-04-29T10:41:43;97514.75;;;16.83;38.91
40285;BME280;25997;50.214;19.354;2023-04-29T10:45:21;97508.81;;;16.43;39.85
40285;BME280;25997;50.214;19.354;2023-04-29T10:48:25;97505.31;;;16.35;39.68
40285;BME280;25997;50.214;19.354;2023-04-29T10:51:29;97494.78;;;16.26;39.32
40285;BME280;25997;50.214;19.354;2023-04-29T10:54:32;97495.66;;;16.20;39.71
40285;BME280;25997;50.214;19.354;2023-04-29T10:57:35;97505.44;;;16.12;39.38
40285;BME280;25997;50.214;19.354;2023-04-29T11:00:38;97500.19;;;15.91;39.94
40285;BME280;25997;50.214;19.354;2023-04-29T11:03:49;97499.41;;;15.69;40.60
40285;BME280;25997;50.214;19.354;2023-04-29T11:06:56;97495.91;;;15.48;40.43
40285;BME280;25997;50.214;19.354;2023-04-29T11:10:01;97497.72;;;15.19;41.24
40285;BME280;25997;50.214;19.354;2023-04-29T11:13:23;97500.34;;;15.29;41.98
40285;BME280;25997;50.214;19.354;2023-04-29T11:16:27;97493.28;;;15.37;40.78
40285;BME280;25997;50.214;19.354;2023-04-29T11:19:31;97493.25;;;15.54;40.28
40285;BME280;25997;50.214;19.354;2023-04-29T11:22:33;97486.19;;;15.57;40.25
40285;BME280;25997;50.214;19.354;2023-04-29T11:25:36;97492.31;;;15.79;40.05
40285;BME280;25997;50.214;19.354;2023-04-29T11:28:41;97500.22;;;15.85;39.73
40285;BME280;25997;50.214;19.354;2023-04-29T11:31:46;97492.25;;;15.94;39.81
40285;BME280;25997;50.214;19.354;2023-04-29T11:34:48;97502.88;;;15.93;40.17
40285;BME280;25997;50.214;19.354;2023-04-29T11:37:50;97497.63;;;15.71;40.04
40285;BME280;25997;50.214;19.354;2023-04-29T11:40:54;97493.25;;;15.67;40.24
40285;BME280;25997;50.214;19.354;2023-04-29T11:43:58;97494.13;;;15.47;40.65
40285;BME280;25997;50.214;19.354;2023-04-29T11:47:03;97491.47;;;15.68;40.46
40285;BME280;25997;50.214;19.354;2023-04-29T11:50:07;97488.78;;;15.78;39.86
40285;BME280;25997;50.214;19.354;2023-04-29T11:53:10;97497.66;;;15.68;40.19
40285;BME280;25997;50.214;19.354;2023-04-29T11:56:12;97488.84;;;15.63;40.31
40285;BME280;25997;50.214;19.354;2023-04-29T11:59:15;97490.59;;;15.64;40.39
40285;BME280;25997;50.214;19.354;2023-04-29T12:02:22;97487.06;;;15.61;40.42
40285;BME280;25997;50.214;19.354;2023-04-29T12:05:24;97487.94;;;15.72;40.17
40285;BME280;25997;50.214;19.354;2023-04-29T12:08:28;97487.03;;;15.79;40.42
40285;BME280;25997;50.214;19.354;2023-04-29T12:11:30;97480.84;;;15.83;40.26
40285;BME280;25997;50.214;19.354;2023-04-29T12:14:33;97492.16;;;16.17;40.10
40285;BME280;25997;50.214;19.354;2023-04-29T12:17:37;97484.06;;;16.47;40.14
40285;BME280;25997;50.214;19.354;2023-04-29T12:20:40;97481.25;;;16.73;39.68
40285;BME280;25997;50.214;19.354;2023-04-29T12:23:42;97480.09;;;17.02;39.46
40285;BME280;25997;50.214;19.354;2023-04-29T12:26:48;97484.38;;;17.18;39.11
40285;BME280;25997;50.214;19.354;2023-04-29T12:29:51;97486.06;;;17.32;39.11
40285;BME280;25997;50.214;19.354;2023-04-29T12:32:55;97481.31;;;17.62;38.84
40285;BME280;25997;50.214;19.354;2023-04-29T12:35:58;97479.69;;;17.51;38.91
40285;BME280;25997;50.214;19.354;2023-04-29T12:39:00;97480.28;;;16.83;39.18
40285;BME280;25997;50.214;19.354;2023-04-29T12:42:03;97476.94;;;16.60;39.51
40285;BME280;25997;50.214;19.354;2023-04-29T12:45:06;97481.28;;;16.65;40.02
40285;BME280;25997;50.214;19.354;2023-04-29T12:48:10;97488.56;;;16.30;41.09
40285;BME280;25997;50.214;19.354;2023-04-29T12:51:13;97497.47;;;16.09;42.07
40285;BME280;25997;50.214;19.354;2023-04-29T12:54:15;97495.00;;;15.68;44.23
40285;BME280;25997;50.214;19.354;2023-04-29T12:57:18;97492.34;;;15.56;44.64
40285;BME280;25997;50.214;19.354;2023-04-29T13:00:21;97493.19;;;15.78;44.19
40285;BME280;25997;50.214;19.354;2023-04-29T13:03:25;97481.72;;;15.84;43.33
40285;BME280;25997;50.214;19.354;2023-04-29T13:06:28;97493.97;;;16.10;42.35
40285;BME280;25997;50.214;19.354;2023-04-29T13:09:30;97483.28;;;16.25;42.00
40285;BME280;25997;50.214;19.354;2023-04-29T13:12:34;97483.31;;;16.19;42.35
40285;BME280;25997;50.214;19.354;2023-04-29T13:15:37;97476.09;;;16.53;41.78
40285;BME280;25997;50.214;19.354;2023-04-29T13:18:41;97472.47;;;16.60;41.61
40285;BME280;25997;50.214;19.354;2023-04-29T13:21:43;97473.88;;;17.11;40.98
40285;BME280;25997;50.214;19.354;2023-04-29T13:24:46;97469.66;;;17.77;40.51
40285;BME280;25997;50.214;19.354;2023-04-29T13:27:49;97467.31;;;18.23;39.13
40285;BME280;25997;50.214;19.354;2023-04-29T13:30:51;97479.22;;;17.90;39.53
40285;BME280;25997;50.214;19.354;2023-04-29T13:33:55;97460.84;;;17.72;40.02
40285;BME280;25997;50.214;19.354;2023-04-29T13:36:58;97462.47;;;17.86;39.92
40285;BME280;25997;50.214;19.354;2023-04-29T13:40:00;97455.78;;;17.52;39.63
40285;BME280;25997;50.214;19.354;2023-04-29T13:43:03;97460.38;;;17.34;39.84
40285;BME280;25997;50.214;19.354;2023-04-29T13:46:06;97461.28;;;17.31;40.21
40285;BME280;25997;50.214;19.354;2023-04-29T13:49:10;97456.25;;;16.98;40.35
40285;BME280;25997;50.214;19.354;2023-04-29T13:52:12;97449.31;;;16.85;40.60
40285;BME280;25997;50.214;19.354;2023-04-29T13:55:15;97453.78;;;16.81;40.71
40285;BME280;25997;50.214;19.354;2023-04-29T13:58:17;97452.16;;;16.64;41.01
40285;BME280;25997;50.214;19.354;2023-04-29T14:01:20;97460.22;;;16.41;40.91
40285;BME280;25997;50.214;19.354;2023-04-29T14:04:25;97463.00;;;16.18;40.96
40285;BME280;25997;50.214;19.354;2023-04-29T14:07:28;97451.66;;;15.92;42.12
40285;BME280;25997;50.214;19.354;2023-04-29T14:10:31;97454.41;;;15.59;42.12
40285;BME280;25997;50.214;19.354;2023-04-29T14:13:33;97454.41;;;15.56;42.47
40285;BME280;25997;50.214;19.354;2023-04-29T14:16:36;97444.69;;;15.58;42.84
40285;BME280;25997;50.214;19.354;2023-04-29T14:19:39;97452.72;;;15.41;43.11
40285;BME280;25997;50.214;19.354;2023-04-29T14:22:42;97446.59;;;15.20;43.43
40285;BME280;25997;50.214;19.354;2023-04-29T14:25:44;97461.53;;;15.27;43.00
40285;BME280;25997;50.214;19.354;2023-04-29T14:28:47;97446.53;;;15.38;43.18
40285;BME280;25997;50.214;19.354;2023-04-29T14:31:57;97446.56;;;15.32;43.16
40285;BME280;25997;50.214;19.354;2023-04-29T14:35:01;97451.81;;;15.41;43.31
40285;BME280;25997;50.214;19.354;2023-04-29T14:38:03;97453.56;;;15.40;43.36
40285;BME280;25997;50.214;19.354;2023-04-29T14:41:05;97452.75;;;15.28;44.12
40285;BME280;25997;50.214;19.354;2023-04-29T14:44:08;97443.91;;;15.32;43.52
40285;BME280;25997;50.214;19.354;2023-04-29T14:47:10;97445.63;;;15.49;43.06
40285;BME280;25997;50.214;19.354;2023-04-29T14:50:14;97447.41;;;15.43;43.20
40285;BME280;25997;50.214;19.354;2023-04-29T14:53:17;97444.72;;;15.49;43.10
40285;BME280;25997;50.214;19.354;2023-04-29T14:56:21;97443.88;;;15.44;43.91
40285;BME280;25997;50.214;19.354;2023-04-29T14:59:23;97441.22;;;15.50;43.49
40285;BME280;25997;50.214;19.354;2023-04-29T15:02:28;97449.13;;;15.54;43.45
40285;BME280;25997;50.214;19.354;2023-04-29T15:05:32;97448.25;;;15.67;43.39
40285;BME280;25997;50.214;19.354;2023-04-29T15:08:34;97443.84;;;15.65;43.07
40285;BME280;25997;50.214;19.354;2023-04-29T15:11:38;97442.03;;;15.71;43.07
40285;BME280;25997;50.214;19.354;2023-04-29T15:14:40;97443.81;;;15.69;43.06
40285;BME280;25997;50.214;19.354;2023-04-29T15:17:43;97443.84;;;15.65;43.12
40285;BME280;25997;50.214;19.354;2023-04-29T15:20:47;97441.22;;;15.48;43.93
40285;BME280;25997;50.214;19.354;2023-04-29T15:23:50;97450.06;;;15.44;43.83
40285;BME280;25997;50.214;19.354;2023-04-29T15:26:52;97443.88;;;15.41;43.73
40285;BME280;25997;50.214;19.354;2023-04-29T15:29:55;97442.13;;;15.37;44.62
40285;BME280;25997;50.214;19.354;2023-04-29T15:32:58;97438.63;;;15.26;45.00
40285;BME280;25997;50.214;19.354;2023-04-29T15:36:02;97443.06;;;15.05;45.90
40285;BME280;25997;50.214;19.354;2023-04-29T15:39:04;97445.72;;;14.89;46.20
40285;BME280;25997;50.214;19.354;2023-04-29T15:42:10;97455.38;;;14.73;46.86
40285;BME280;25997;50.214;19.354;2023-04-29T15:45:13;97458.91;;;14.59;47.16
40285;BME280;25997;50.214;19.354;2023-04-29T15:48:16;97473.00;;;14.50;47.74
40285;BME280;25997;50.214;19.354;2023-04-29T15:51:20;97485.28;;;14.24;49.28
40285;BME280;25997;50.214;19.354;2023-04-29T15:54:23;97491.31;;;13.93;49.76
40285;BME280;25997;50.214;19.354;2023-04-29T15:57:25;97487.69;;;13.74;49.89
40285;BME280;25997;50.214;19.354;2023-04-29T16:00:28;97484.09;;;13.60;50.37
40285;BME280;25997;50.214;19.354;2023-04-29T16:03:30;97484.09;;;13.58;50.91
40285;BME280;25997;50.214;19.354;2023-04-29T16:06:34;97481.44;;;13.54;51.31
40285;BME280;25997;50.214;19.354;2023-04-29T16:09:36;97486.69;;;13.49;51.84